sensor_id;sensor_type;location;lat;lon;timestamp;temperature;humidity
17891;DHT22;9071;48.220;14.480;2024-02-28T00:04:50;4.20;99.90
17891;DHT22;9071;48.220;14.480;2024-02-28T00:09:52;4.10;99.90
17891;DHT22;9071;48.220;14.480;2024-02-28T00:14:58;4.10;99.90
17891;DHT22;9071;48.220;14.480;2024-02-28T00:20:01;4.00;99.90
17891;DHT22;9071;48.220;14.480;2024-02-28T00:25:04;4.00;99.90
17891;DHT22;9071;48.220;14.480;2024-02-28T00:30:07;3.90;99.90
17891;DHT22;9071;48.220;14.480;2024-02-28T00:35:11;3.80;99.90
17891;DHT22;9071;48.220;14.480;2024-02-28T00:40:13;3.80;99.90
17891;DHT22;9071;48.220;14.480;2024-02-28T00:45:16;3.60;99.90
17891;DHT22;9071;48.220;14.480;2024-02-28T00:50:19;3.50;99.90
17891;DHT22;9071;48.220;14.480;2024-02-28T00:55:21;3.40;99.90
17891;DHT22;9071;48.220;14.480;2024-02-28T01:00:23;3.30;99.90
17891;DHT22;9071;48.220;14.480;2024-02-28T01:05:27;3.40;99.90
17891;DHT22;9071;48.220;14.480;2024-02-28T01:10:29;3.40;99.90
17891;DHT22;9071;48.220;14.480;2024-02-28T01:15:31;3.30;99.90
17891;DHT22;9071;48.220;14.480;2024-02-28T01:20:34;3.20;99.90
17891;DHT22;9071;48.220;14.480;2024-02-28T01:25:37;3.20;99.90
17891;DHT22;9071;48.220;14.480;2024-02-28T01:30:39;3.10;99.90
17891;DHT22;9071;48.220;14.480;2024-02-28T01:35:42;3.00;99.90
17891;DHT22;9071;48.220;14.480;2024-02-28T01:40:44;2.90;99.90
17891;DHT22;9071;48.220;14.480;2024-02-28T01:45:47;3.10;99.90
17891;DHT22;9071;48.220;14.480;2024-02-28T01:50:50;3.10;99.90
17891;DHT22;9071;48.220;14.480;2024-02-28T01:55:53;3.00;99.90
17891;DHT22;9071;48.220;14.480;2024-02-28T02:00:56;2.90;99.90
17891;DHT22;9071;48.220;14.480;2024-02-28T02:06:01;2.80;99.90
17891;DHT22;9071;48.220;14.480;2024-02-28T02:11:04;2.80;99.90
17891;DHT22;9071;48.220;14.480;2024-02-28T02:16:06;2.90;99.90
17891;DHT22;9071;48.220;14.480;2024-02-28T02:21:13;3.00;99.90
17891;DHT22;9071;48.220;14.480;2024-02-28T02:26:17;2.90;99.90
17891;DHT22;9071;48.220;14.480;2024-02-28T02:31:19;3.20;99.90
17891;DHT22;9071;48.220;14.480;2024-02-28T02:36:21;3.20;99.90
17891;DHT22;9071;48.220;14.480;2024-02-28T02:41:25;3.30;99.90
17891;DHT22;9071;48.220;14.480;2024-02-28T02:46:27;3.40;99.90
17891;DHT22;9071;48.220;14.480;2024-02-28T02:51:29;3.50;99.90
17891;DHT22;9071;48.220;14.480;2024-02-28T02:56:33;3.60;99.90
17891;DHT22;9071;48.220;14.480;2024-02-28T03:01:36;3.60;99.90
17891;DHT22;9071;48.220;14.480;2024-02-28T03:06:38;3.70;99.90
17891;DHT22;9071;48.220;14.480;2024-02-28T03:11:41;3.80;99.90
17891;DHT22;9071;48.220;14.480;2024-02-28T03:16:43;3.80;99.90
17891;DHT22;9071;48.220;14.480;2024-02-28T03:21:45;3.80;99.90
17891;DHT22;9071;48.220;14.480;2024-02-28T03:26:49;3.90;99.90
17891;DHT22;9071;48.220;14.480;2024-02-28T03:31:51;4.10;99.90
17891;DHT22;9071;48.220;14.480;2024-02-28T03:36:53;4.30;99.90
17891;DHT22;9071;48.220;14.480;2024-02-28T03:41:56;4.50;99.90
17891;DHT22;9071;48.220;14.480;2024-02-28T03:46:58;4.50;99.90
17891;DHT22;9071;48.220;14.480;2024-02-28T03:52:00;4.60;99.90
17891;DHT22;9071;48.220;14.480;2024-02-28T03:57:07;4.70;99.90
17891;DHT22;9071;48.220;14.480;2024-02-28T04:02:09;4.80;99.90
17891;DHT22;9071;48.220;14.480;2024-02-28T04:07:11;4.80;99.90
17891;DHT22;9071;48.220;14.480;2024-02-28T04:12:15;4.90;99.90
17891;DHT22;9071;48.220;14.480;2024-02-28T04:17:17;5.00;99.90
17891;DHT22;9071;48.220;14.480;2024-02-28T04:22:19;5.00;99.90
17891;DHT22;9071;48.220;14.480;2024-02-28T04:27:22;5.10;99.90
17891;DHT22;9071;48.220;14.480;2024-02-28T04:32:24;5.10;99.90
17891;DHT22;9071;48.220;14.480;2024-02-28T04:37:26;5.10;99.90
17891;DHT22;9071;48.220;14.480;2024-02-28T04:42:30;5.10;99.90
17891;DHT22;9071;48.220;14.480;2024-02-28T04:47:32;5.10;99.90
17891;DHT22;9071;48.220;14.480;2024-02-28T04:52:34;5.10;99.90
17891;DHT22;9071;48.220;14.480;2024-02-28T04:57:37;5.10;99.90
17891;DHT22;9071;48.220;14.480;2024-02-28T05:02:39;5.10;99.90
17891;DHT22;9071;48.220;14.480;2024-02-28T05:07:41;5.10;99.90
17891;DHT22;9071;48.220;14.480;2024-02-28T05:12:44;5.10;99.90
17891;DHT22;9071;48.220;14.480;2024-02-28T05:17:46;5.20;99.90
17891;DHT22;9071;48.220;14.480;2024-02-28T05:22:51;5.20;99.90
17891;DHT22;9071;48.220;14.480;2024-02-28T05:27:55;5.20;99.90
17891;DHT22;9071;48.220;14.480;2024-02-28T05:32:57;5.20;99.90
17891;DHT22;9071;48.220;14.480;2024-02-28T05:37:59;5.20;99.90
17891;DHT22;9071;48.220;14.480;2024-02-28T05:43:02;5.20;99.90
17891;DHT22;9071;48.220;14.480;2024-02-28T05:48:05;5.20;99.90
17891;DHT22;9071;48.220;14.480;2024-02-28T05:53:07;5.30;99.90
17891;DHT22;9071;48.220;14.480;2024-02-28T05:58:11;5.30;99.90
17891;DHT22;9071;48.220;14.480;2024-02-28T06:03:13;5.30;99.90
17891;DHT22;9071;48.220;14.480;2024-02-28T06:08:15;5.40;99.90
17891;DHT22;9071;48.220;14.480;2024-02-28T06:13:18;5.40;99.90
17891;DHT22;9071;48.220;14.480;2024-02-28T06:18:21;5.50;99.90
17891;DHT22;9071;48.220;14.480;2024-02-28T06:23:23;5.50;99.90
17891;DHT22;9071;48.220;14.480;2024-02-28T06:28:27;5.50;99.90
17891;DHT22;9071;48.220;14.480;2024-02-28T06:33:29;5.50;99.90
17891;DHT22;9071;48.220;14.480;2024-02-28T06:38:31;5.60;99.90
17891;DHT22;9071;48.220;14.480;2024-02-28T06:43:34;5.60;99.90
17891;DHT22;9071;48.220;14.480;2024-02-28T06:48:37;5.60;99.90
17891;DHT22;9071;48.220;14.480;2024-02-28T06:53:39;5.70;99.90
17891;DHT22;9071;48.220;14.480;2024-02-28T06:58:42;5.70;99.90
17891;DHT22;9071;48.220;14.480;2024-02-28T07:03:44;5.80;99.90
17891;DHT22;9071;48.220;14.480;2024-02-28T07:08:46;5.80;99.90
17891;DHT22;9071;48.220;14.480;2024-02-28T07:13:50;5.90;99.90
17891;DHT22;9071;48.220;14.480;2024-02-28T07:18:52;6.00;99.90
17891;DHT22;9071;48.220;14.480;2024-02-28T07:23:54;6.20;99.90
17891;DHT22;9071;48.220;14.480;2024-02-28T07:28:57;6.30;99.90
17891;DHT22;9071;48.220;14.480;2024-02-28T07:33:59;6.40;99.90
17891;DHT22;9071;48.220;14.480;2024-02-28T07:39:02;6.40;99.90
17891;DHT22;9071;48.220;14.480;2024-02-28T07:44:05;6.50;99.90
17891;DHT22;9071;48.220;14.480;2024-02-28T07:49:07;6.60;99.90
17891;DHT22;9071;48.220;14.480;2024-02-28T07:54:11;6.70;99.90
17891;DHT22;9071;48.220;14.480;2024-02-28T07:59:15;6.70;99.90
17891;DHT22;9071;48.220;14.480;2024-02-28T08:04:17;6.80;99.90
17891;DHT22;9071;48.220;14.480;2024-02-28T08:09:19;6.90;99.90
17891;DHT22;9071;48.220;14.480;2024-02-28T08:14:22;6.90;99.90
17891;DHT22;9071;48.220;14.480;2024-02-28T08:19:24;7.00;99.90
17891;DHT22;9071;48.220;14.480;2024-02-28T08:44:53;7.30;99.90
17891;DHT22;9071;48.220;14.480;2024-02-28T08:49:56;7.50;99.90
17891;DHT22;9071;48.220;14.480;2024-02-28T08:54:58;7.60;99.90
17891;DHT22;9071;48.220;14.480;2024-02-28T09:00:01;7.80;99.90
17891;DHT22;9071;48.220;14.480;2024-02-28T09:05:04;7.90;99.90
17891;DHT22;9071;48.220;14.480;2024-02-28T09:10:07;8.10;99.90
17891;DHT22;9071;48.220;14.480;2024-02-28T09:15:11;8.30;99.90
17891;DHT22;9071;48.220;14.480;2024-02-28T09:20:13;8.40;99.90
17891;DHT22;9071;48.220;14.480;2024-02-28T09:25:15;8.60;99.90
17891;DHT22;9071;48.220;14.480;2024-02-28T09:30:20;8.80;99.90
17891;DHT22;9071;48.220;14.480;2024-02-28T09:35:23;9.00;99.90
17891;DHT22;9071;48.220;14.480;2024-02-28T09:40:25;9.10;99.90
17891;DHT22;9071;48.220;14.480;2024-02-28T09:45:30;9.20;99.90
17891;DHT22;9071;48.220;14.480;2024-02-28T09:50:33;9.10;99.90
17891;DHT22;9071;48.220;14.480;2024-02-28T09:55:35;9.20;99.90
17891;DHT22;9071;48.220;14.480;2024-02-28T10:00:39;9.20;99.90
17891;DHT22;9071;48.220;14.480;2024-02-28T10:05:45;9.40;99.90
17891;DHT22;9071;48.220;14.480;2024-02-28T10:10:48;9.50;99.90
17891;DHT22;9071;48.220;14.480;2024-02-28T10:15:51;9.60;99.90
17891;DHT22;9071;48.220;14.480;2024-02-28T10:20:54;9.60;99.90
17891;DHT22;9071;48.220;14.480;2024-02-28T10:25:56;9.70;99.90
17891;DHT22;9071;48.220;14.480;2024-02-28T10:31:00;9.90;99.90
17891;DHT22;9071;48.220;14.480;2024-02-28T10:36:03;9.80;99.90
17891;DHT22;9071;48.220;14.480;2024-02-28T10:41:06;9.90;99.90
17891;DHT22;9071;48.220;14.480;2024-02-28T10:46:09;10.30;99.90
17891;DHT22;9071;48.220;14.480;2024-02-28T10:51:15;10.40;99.90
17891;DHT22;9071;48.220;14.480;2024-02-28T10:56:19;10.90;99.90
17891;DHT22;9071;48.220;14.480;2024-02-28T11:01:22;11.40;99.90
17891;DHT22;9071;48.220;14.480;2024-02-28T11:06:25;11.40;99.90
17891;DHT22;9071;48.220;14.480;2024-02-28T11:11:31;12.10;99.90
17891;DHT22;9071;48.220;14.480;2024-02-28T11:16:35;12.40;99.90
17891;DHT22;9071;48.220;14.480;2024-02-28T11:21:38;12.40;99.90
17891;DHT22;9071;48.220;14.480;2024-02-28T11:26:40;12.30;99.90
17891;DHT22;9071;48.220;14.480;2024-02-28T11:31:44;12.60;99.90
17891;DHT22;9071;48.220;14.480;2024-02-28T11:36:47;12.90;99.90
17891;DHT22;9071;48.220;14.480;2024-02-28T11:41:49;12.50;99.90
17891;DHT22;9071;48.220;14.480;2024-02-28T11:46:53;12.40;99.90
17891;DHT22;9071;48.220;14.480;2024-02-28T11:51:55;12.10;99.90
17891;DHT22;9071;48.220;14.480;2024-02-28T11:56:57;11.60;99.90
17891;DHT22;9071;48.220;14.480;2024-02-28T12:02:00;11.10;99.90
17891;DHT22;9071;48.220;14.480;2024-02-28T12:07:02;11.00;99.90
17891;DHT22;9071;48.220;14.480;2024-02-28T12:12:07;11.20;99.90
17891;DHT22;9071;48.220;14.480;2024-02-28T12:17:10;11.20;99.90
17891;DHT22;9071;48.220;14.480;2024-02-28T12:22:12;11.20;99.90
17891;DHT22;9071;48.220;14.480;2024-02-28T12:27:14;11.30;99.90
17891;DHT22;9071;48.220;14.480;2024-02-28T12:32:18;11.30;99.90
17891;DHT22;9071;48.220;14.480;2024-02-28T12:37:20;11.00;99.90
17891;DHT22;9071;48.220;14.480;2024-02-28T12:42:22;11.00;99.90
17891;DHT22;9071;48.220;14.480;2024-02-28T12:47:25;11.10;99.90
17891;DHT22;9071;48.220;14.480;2024-02-28T12:52:27;11.10;99.90
17891;DHT22;9071;48.220;14.480;2024-02-28T12:57:29;10.90;99.90
17891;DHT22;9071;48.220;14.480;2024-02-28T13:02:32;11.00;99.90
17891;DHT22;9071;48.220;14.480;2024-02-28T13:07:34;10.90;99.90
17891;DHT22;9071;48.220;14.480;2024-02-28T13:12:37;10.70;99.90
17891;DHT22;9071;48.220;14.480;2024-02-28T13:17:41;10.80;99.90
17891;DHT22;9071;48.220;14.480;2024-02-28T13:22:43;11.00;99.90
17891;DHT22;9071;48.220;14.480;2024-02-28T13:27:45;11.00;99.90
17891;DHT22;9071;48.220;14.480;2024-02-28T13:32:49;10.90;99.90
17891;DHT22;9071;48.220;14.480;2024-02-28T13:37:52;10.90;99.90
17891;DHT22;9071;48.220;14.480;2024-02-28T13:42:55;10.70;99.90
17891;DHT22;9071;48.220;14.480;2024-02-28T13:47:59;10.70;99.90
17891;DHT22;9071;48.220;14.480;2024-02-28T13:53:02;10.70;99.90
17891;DHT22;9071;48.220;14.480;2024-02-28T13:58:04;10.80;99.90
17891;DHT22;9071;48.220;14.480;2024-02-28T14:03:08;10.70;99.90
17891;DHT22;9071;48.220;14.480;2024-02-28T14:08:10;10.50;99.90
17891;DHT22;9071;48.220;14.480;2024-02-28T14:13:13;10.40;99.90
17891;DHT22;9071;48.220;14.480;2024-02-28T14:18:17;10.40;99.90
17891;DHT22;9071;48.220;14.480;2024-02-28T14:23:19;10.30;99.90
17891;DHT22;9071;48.220;14.480;2024-02-28T14:28:21;10.30;99.90
17891;DHT22;9071;48.220;14.480;2024-02-28T14:33:25;10.30;99.90
17891;DHT22;9071;48.220;14.480;2024-02-28T14:38:27;10.30;99.90
17891;DHT22;9071;48.220;14.480;2024-02-28T14:43:29;10.40;99.90
17891;DHT22;9071;48.220;14.480;2024-02-28T14:48:32;10.40;99.90
17891;DHT22;9071;48.220;14.480;2024-02-28T14:53:34;10.40;99.90
17891;DHT22;9071;48.220;14.480;2024-02-28T14:58:36;10.30;99.90
17891;DHT22;9071;48.220;14.480;2024-02-28T15:03:41;10.30;99.90
17891;DHT22;9071;48.220;14.480;2024-02-28T15:08:43;10.20;99.90
17891;DHT22;9071;48.220;14.480;2024-02-28T15:13:45;10.00;99.90
17891;DHT22;9071;48.220;14.480;2024-02-28T15:18:48;10.00;99.90
17891;DHT22;9071;48.220;14.480;2024-02-28T15:23:50;9.80;99.90
17891;DHT22;9071;48.220;14.480;2024-02-28T15:28:52;9.80;99.90
17891;DHT22;9071;48.220;14.480;2024-02-28T15:33:56;9.70;99.90
17891;DHT22;9071;48.220;14.480;2024-02-28T15:38:58;9.60;99.90
17891;DHT22;9071;48.220;14.480;2024-02-28T15:44:00;9.50;99.90
17891;DHT22;9071;48.220;14.480;2024-02-28T15:49:04;9.50;99.90
17891;DHT22;9071;48.220;14.480;2024-02-28T15:54:06;9.50;99.90
17891;DHT22;9071;48.220;14.480;2024-02-28T15:59:08;9.40;99.90
17891;DHT22;9071;48.220;14.480;2024-02-28T16:04:14;9.30;99.90
17891;DHT22;9071;48.220;14.480;2024-02-28T16:09:16;9.30;99.90
17891;DHT22;9071;48.220;14.480;2024-02-28T16:14:18;9.30;99.90
17891;DHT22;9071;48.220;14.480;2024-02-28T16:19:22;9.20;99.90
17891;DHT22;9071;48.220;14.480;2024-02-28T16:24:24;9.10;99.90
17891;DHT22;9071;48.220;14.480;2024-02-28T16:29:26;9.00;99.90
17891;DHT22;9071;48.220;14.480;2024-02-28T16:34:29;8.90;99.90
17891;DHT22;9071;48.220;14.480;2024-02-28T16:39:32;8.80;99.90
17891;DHT22;9071;48.220;14.480;2024-02-28T16:44:34;8.80;99.90
17891;DHT22;9071;48.220;14.480;2024-02-28T16:49:38;8.70;99.90
17891;DHT22;9071;48.220;14.480;2024-02-28T16:54:40;8.60;99.90
17891;DHT22;9071;48.220;14.480;2024-02-28T16:59:42;8.60;99.90
17891;DHT22;9071;48.220;14.480;2024-02-28T17:04:45;8.50;99.90
17891;DHT22;9071;48.220;14.480;2024-02-28T17:09:47;8.50;99.90
17891;DHT22;9071;48.220;14.480;2024-02-28T17:14:49;8.40;99.90
17891;DHT22;9071;48.220;14.480;2024-02-28T17:19:53;8.40;99.90
17891;DHT22;9071;48.220;14.480;2024-02-28T17:24:56;8.40;99.90
17891;DHT22;9071;48.220;14.480;2024-02-28T17:29:58;8.40;99.90
17891;DHT22;9071;48.220;14.480;2024-02-28T17:35:01;8.30;99.90
17891;DHT22;9071;48.220;14.480;2024-02-28T17:40:06;8.30;99.90
17891;DHT22;9071;48.220;14.480;2024-02-28T17:45:10;8.30;99.90
17891;DHT22;9071;48.220;14.480;2024-02-28T17:50:13;8.30;99.90
17891;DHT22;9071;48.220;14.480;2024-02-28T17:55:16;8.30;99.90
17891;DHT22;9071;48.220;14.480;2024-02-28T18:00:18;8.30;99.90
17891;DHT22;9071;48.220;14.480;2024-02-28T18:05:27;8.30;99.90
17891;DHT22;9071;48.220;14.480;2024-02-28T18:10:29;8.30;99.90
17891;DHT22;9071;48.220;14.480;2024-02-28T18:15:31;8.20;99.90
17891;DHT22;9071;48.220;14.480;2024-02-28T18:20:34;8.20;99.90
17891;DHT22;9071;48.220;14.480;2024-02-28T18:25:37;8.10;99.90
17891;DHT22;9071;48.220;14.480;2024-02-28T18:30:39;8.10;99.90
17891;DHT22;9071;48.220;14.480;2024-02-28T18:35:42;8.10;99.90
17891;DHT22;9071;48.220;14.480;2024-02-28T18:40:45;8.10;99.90
17891;DHT22;9071;48.220;14.480;2024-02-28T18:45:47;8.00;99.90
17891;DHT22;9071;48.220;14.480;2024-02-28T18:50:51;8.10;99.90
17891;DHT22;9071;48.220;14.480;2024-02-28T18:55:53;8.00;99.90
17891;DHT22;9071;48.220;14.480;2024-02-28T19:00:55;8.00;99.90
17891;DHT22;9071;48.220;14.480;2024-02-28T19:05:58;8.00;99.90
17891;DHT22;9071;48.220;14.480;2024-02-28T19:11:00;8.00;99.90
17891;DHT22;9071;48.220;14.480;2024-02-28T19:16:04;8.00;99.90
17891;DHT22;9071;48.220;14.480;2024-02-28T19:21:07;7.90;99.90
17891;DHT22;9071;48.220;14.480;2024-02-28T19:26:09;7.90;99.90
17891;DHT22;9071;48.220;14.480;2024-02-28T19:31:12;7.90;99.90
17891;DHT22;9071;48.220;14.480;2024-02-28T19:36:16;7.90;99.90
17891;DHT22;9071;48.220;14.480;2024-02-28T19:41:18;7.90;99.90
17891;DHT22;9071;48.220;14.480;2024-02-28T19:46:20;7.80;99.90
17891;DHT22;9071;48.220;14.480;2024-02-28T19:51:23;7.80;99.90
17891;DHT22;9071;48.220;14.480;2024-02-28T19:56:25;7.80;99.90
17891;DHT22;9071;48.220;14.480;2024-02-28T20:01:28;7.80;99.90
17891;DHT22;9071;48.220;14.480;2024-02-28T20:06:31;7.80;99.90
17891;DHT22;9071;48.220;14.480;2024-02-28T20:11:33;7.80;99.90
17891;DHT22;9071;48.220;14.480;2024-02-28T20:16:36;7.80;99.90
17891;DHT22;9071;48.220;14.480;2024-02-28T20:21:39;7.80;99.90
17891;DHT22;9071;48.220;14.480;2024-02-28T20:26:41;7.70;99.90
17891;DHT22;9071;48.220;14.480;2024-02-28T20:31:44;7.70;99.90
17891;DHT22;9071;48.220;14.480;2024-02-28T20:36:47;7.70;99.90
17891;DHT22;9071;48.220;14.480;2024-02-28T20:41:49;7.70;99.90
17891;DHT22;9071;48.220;14.480;2024-02-28T20:46:51;7.70;99.90
17891;DHT22;9071;48.220;14.480;2024-02-28T20:51:54;7.70;99.90
17891;DHT22;9071;48.220;14.480;2024-02-28T20:56:57;7.70;99.90
17891;DHT22;9071;48.220;14.480;2024-02-28T21:01:59;7.70;99.90
17891;DHT22;9071;48.220;14.480;2024-02-28T21:07:03;7.70;99.90
17891;DHT22;9071;48.220;14.480;2024-02-28T21:12:05;7.70;99.90
17891;DHT22;9071;48.220;14.480;2024-02-28T21:17:07;7.70;99.90
17891;DHT22;9071;48.220;14.480;2024-02-28T21:22:11;7.70;99.90
17891;DHT22;9071;48.220;14.480;2024-02-28T21:27:13;7.70;99.90
17891;DHT22;9071;48.220;14.480;2024-02-28T21:32:15;7.70;99.90
17891;DHT22;9071;48.220;14.480;2024-02-28T21:37:18;7.70;99.90
17891;DHT22;9071;48.220;14.480;2024-02-28T21:42:20;7.70;99.90
17891;DHT22;9071;48.220;14.480;2024-02-28T21:47:22;7.70;99.90
17891;DHT22;9071;48.220;14.480;2024-02-28T21:52:27;7.70;99.90
17891;DHT22;9071;48.220;14.480;2024-02-28T21:57:29;7.70;99.90
17891;DHT22;9071;48.220;14.480;2024-02-28T22:02:31;7.70;99.90
17891;DHT22;9071;48.220;14.480;2024-02-28T22:07:34;7.60;99.90
17891;DHT22;9071;48.220;14.480;2024-02-28T22:12:36;7.60;99.90
17891;DHT22;9071;48.220;14.480;2024-02-28T22:17:38;7.60;99.90
17891;DHT22;9071;48.220;14.480;2024-02-28T22:22:42;7.60;99.90
17891;DHT22;9071;48.220;14.480;2024-02-28T22:27:44;7.60;99.90
17891;DHT22;9071;48.220;14.480;2024-02-28T22:32:46;7.50;99.90
17891;DHT22;9071;48.220;14.480;2024-02-28T22:37:49;7.50;99.90
17891;DHT22;9071;48.220;14.480;2024-02-28T22:42:51;7.50;99.90
17891;DHT22;9071;48.220;14.480;2024-02-28T22:47:54;7.50;99.90
17891;DHT22;9071;48.220;14.480;2024-02-28T22:52:58;7.50;99.90
17891;DHT22;9071;48.220;14.480;2024-02-28T22:58:00;7.50;99.90
17891;DHT22;9071;48.220;14.480;2024-02-28T23:03:03;7.50;99.90
17891;DHT22;9071;48.220;14.480;2024-02-28T23:08:07;7.60;99.90
17891;DHT22;9071;48.220;14.480;2024-02-28T23:13:09;7.50;99.90
17891;DHT22;9071;48.220;14.480;2024-02-28T23:18:11;7.50;99.90
17891;DHT22;9071;48.220;14.480;2024-02-28T23:23:15;7.50;99.90
17891;DHT22;9071;48.220;14.480;2024-02-28T23:28:17;7.50;99.90
17891;DHT22;9071;48.220;14.480;2024-02-28T23:33:19;7.50;99.90
17891;DHT22;9071;48.220;14.480;2024-02-28T23:38:22;7.50;99.90
17891;DHT22;9071;48.220;14.480;2024-02-28T23:43:24;7.50;99.90
17891;DHT22;9071;48.220;14.480;2024-02-28T23:48:26;7.50;99.90
17891;DHT22;9071;48.220;14.480;2024-02-28T23:53:29;7.50;99.90
17891;DHT22;9071;48.220;14.480;2024-02-28T23:58:31;7.50;99.90
